createdAt,value
2018-06-27T00:02:16.844Z,17.90
2018-06-27T00:04:46.832Z,17.90
2018-06-27T00:07:16.747Z,18.21
2018-06-27T00:09:47.321Z,18.13
2018-06-27T00:12:17.279Z,18.05
2018-06-27T00:14:47.356Z,17.99
2018-06-27T00:17:17.239Z,18.34
2018-06-27T00:19:47.278Z,18.33
2018-06-27T00:22:17.412Z,18.11
2018-06-27T00:24:47.393Z,18.15
2018-06-27T00:27:17.484Z,18.14
2018-06-27T00:29:47.535Z,18.13
2018-06-27T00:32:17.733Z,18.32
2018-06-27T00:34:48.167Z,18.32
2018-06-27T00:37:18.242Z,18.19
2018-06-27T00:39:48.553Z,18.43
2018-06-27T00:42:18.660Z,18.28
2018-06-27T00:44:48.840Z,18.26
2018-06-27T00:47:18.998Z,18.57
2018-06-27T00:49:49.013Z,18.29
2018-06-27T00:52:19.449Z,18.27
2018-06-27T00:54:49.423Z,18.10
2018-06-27T00:57:19.442Z,18.15
2018-06-27T00:59:49.396Z,18.02
2018-06-27T01:02:19.475Z,17.95
2018-06-27T01:04:49.870Z,17.94
2018-06-27T01:07:21.522Z,17.88
2018-06-27T01:09:52.016Z,17.83
2018-06-27T01:12:22.308Z,17.85
2018-06-27T01:14:52.224Z,17.97
2018-06-27T01:17:22.269Z,17.73
2018-06-27T01:19:52.600Z,17.65
2018-06-27T01:22:22.714Z,17.53
2018-06-27T01:24:52.990Z,17.59
2018-06-27T01:27:23.423Z,17.76
2018-06-27T01:29:53.407Z,17.65
2018-06-27T01:32:23.851Z,17.68
2018-06-27T01:34:54.392Z,17.47
2018-06-27T01:37:24.392Z,17.51
2018-06-27T01:39:54.662Z,17.46
2018-06-27T01:42:24.749Z,17.41
2018-06-27T01:44:54.947Z,17.32
2018-06-27T01:47:24.903Z,17.29
2018-06-27T01:49:55.044Z,17.30
2018-06-27T01:52:25.536Z,17.34
2018-06-27T01:54:56.093Z,17.29
2018-06-27T01:57:26.092Z,17.30
2018-06-27T01:59:56.083Z,17.28
2018-06-27T02:02:26.036Z,17.17
2018-06-27T02:04:56.300Z,17.33
2018-06-27T02:07:26.598Z,17.27
2018-06-27T02:09:56.819Z,17.22
2018-06-27T02:12:27.023Z,17.25
2018-06-27T02:14:57.207Z,17.29
2018-06-27T02:17:27.703Z,17.17
2018-06-27T02:19:57.876Z,17.26
2018-06-27T02:22:27.862Z,17.23
2018-06-27T02:24:58.111Z,17.25
2018-06-27T02:27:28.733Z,17.21
2018-06-27T02:29:58.983Z,17.04
2018-06-27T02:32:29.017Z,17.01
2018-06-27T02:34:59.356Z,16.92
2018-06-27T02:37:29.894Z,16.88
2018-06-27T02:40:00.155Z,16.85
2018-06-27T02:42:30.402Z,16.80
2018-06-27T02:45:00.332Z,16.81
2018-06-27T02:47:30.882Z,16.90
2018-06-27T02:50:00.788Z,16.90
2018-06-27T02:52:30.691Z,16.89
2018-06-27T02:55:01.168Z,16.86
2018-06-27T02:57:31.422Z,16.86
2018-06-27T03:00:01.423Z,16.93
2018-06-27T03:02:31.864Z,17.04
2018-06-27T03:05:02.125Z,17.04
2018-06-27T03:07:32.316Z,17.13
2018-06-27T03:10:02.572Z,17.18
2018-06-27T03:12:32.927Z,17.27
2018-06-27T03:15:03.196Z,17.22
2018-06-27T03:17:33.353Z,17.35
2018-06-27T03:20:03.387Z,17.37
2018-06-27T03:22:33.456Z,17.46
2018-06-27T03:25:03.495Z,17.36
2018-06-27T03:27:33.563Z,17.53
2018-06-27T03:30:03.535Z,17.58
2018-06-27T03:32:33.588Z,17.54
2018-06-27T03:35:04.297Z,17.47
2018-06-27T03:37:34.453Z,17.53
2018-06-27T03:40:04.300Z,17.78
2018-06-27T03:42:34.323Z,17.85
2018-06-27T03:45:04.192Z,17.91
2018-06-27T03:47:34.143Z,17.92
2018-06-27T03:50:04.112Z,18.07
2018-06-27T03:52:33.968Z,18.18
2018-06-27T03:55:04.050Z,18.06
2018-06-27T03:57:34.052Z,17.94
2018-06-27T04:00:04.180Z,18.11
2018-06-27T04:02:34.201Z,17.98
2018-06-27T04:05:04.400Z,18.37
2018-06-27T04:07:34.601Z,18.21
2018-06-27T04:10:04.855Z,18.15
2018-06-27T04:12:34.854Z,18.37
2018-06-27T04:15:05.245Z,18.61
2018-06-27T04:17:35.143Z,18.70
2018-06-27T04:20:05.288Z,18.51
2018-06-27T04:22:36.251Z,18.78
2018-06-27T04:25:06.339Z,18.68
2018-06-27T04:27:36.267Z,18.97
2018-06-27T04:30:06.313Z,18.84
2018-06-27T04:32:36.512Z,19.52
2018-06-27T04:35:06.683Z,19.14
2018-06-27T04:37:36.568Z,18.99
2018-06-27T04:40:06.654Z,18.86
2018-06-27T04:42:37.402Z,19.03
2018-06-27T04:45:07.699Z,19.01
2018-06-27T04:47:37.606Z,18.92
2018-06-27T04:50:07.948Z,19.04
2018-06-27T04:52:38.981Z,19.14
2018-06-27T04:55:09.332Z,19.03
2018-06-27T04:57:39.246Z,18.99
2018-06-27T05:00:10.110Z,19.10
2018-06-27T05:02:40.141Z,19.15
2018-06-27T05:05:10.599Z,19.06
2018-06-27T05:07:40.821Z,18.85
2018-06-27T05:10:11.130Z,18.67
2018-06-27T05:12:41.927Z,18.84
2018-06-27T05:15:12.260Z,18.83
2018-06-27T05:17:42.480Z,18.98
2018-06-27T05:20:12.728Z,19.15
2018-06-27T05:22:43.022Z,18.96
2018-06-27T05:25:13.434Z,18.84
2018-06-27T05:27:43.527Z,18.92
2018-06-27T05:30:13.550Z,19.04
2018-06-27T05:32:43.432Z,19.14
2018-06-27T05:35:13.643Z,19.08
2018-06-27T05:37:43.632Z,19.04
2018-06-27T05:40:13.828Z,19.09
2018-06-27T05:42:43.945Z,19.11
2018-06-27T05:45:13.978Z,19.02
2018-06-27T05:47:44.089Z,19.02
2018-06-27T05:50:14.370Z,19.18
2018-06-27T05:52:44.442Z,19.17
2018-06-27T05:55:14.368Z,18.75
2018-06-27T05:57:44.629Z,19.04
2018-06-27T06:00:15.022Z,18.98
2018-06-27T06:02:45.008Z,18.98
2018-06-27T06:05:15.356Z,18.80
2018-06-27T06:07:45.635Z,18.71
2018-06-27T06:10:15.973Z,18.73
2018-06-27T06:12:46.446Z,18.71
2018-06-27T06:15:16.727Z,18.70
2018-06-27T06:17:46.974Z,18.68
2018-06-27T06:20:18.162Z,18.55
2018-06-27T06:22:48.240Z,18.65
2018-06-27T06:25:18.314Z,18.64
2018-06-27T06:27:48.356Z,18.58
2018-06-27T06:30:18.367Z,18.65
2018-06-27T06:32:48.334Z,18.60
2018-06-27T06:35:18.496Z,18.58
2018-06-27T06:37:48.709Z,18.71
2018-06-27T06:40:18.793Z,18.81
2018-06-27T06:42:49.080Z,18.82
2018-06-27T06:45:18.975Z,19.00
2018-06-27T06:47:49.215Z,19.21
2018-06-27T06:50:19.705Z,19.24
2018-06-27T06:52:49.642Z,19.20
2018-06-27T06:55:19.783Z,19.52
2018-06-27T06:57:49.923Z,20.16
2018-06-27T07:00:20.097Z,20.58
2018-06-27T07:02:50.186Z,20.10
2018-06-27T07:05:20.574Z,19.60
2018-06-27T07:07:50.571Z,19.86
2018-06-27T07:10:21.095Z,20.35
2018-06-27T07:12:51.169Z,20.97
2018-06-27T07:15:21.431Z,21.07
2018-06-27T07:17:51.375Z,21.31
2018-06-27T07:20:21.627Z,21.51
2018-06-27T07:22:52.856Z,21.99
2018-06-27T07:25:22.816Z,21.93
2018-06-27T07:27:52.877Z,21.40
2018-06-27T07:30:22.850Z,21.19
2018-06-27T07:32:53.290Z,21.24
2018-06-27T07:35:23.765Z,22.48
2018-06-27T07:37:53.687Z,22.02
2018-06-27T07:40:23.862Z,22.85
2018-06-27T07:42:54.630Z,22.98
2018-06-27T07:45:24.859Z,23.34
2018-06-27T07:47:55.597Z,24.06
2018-06-27T07:50:26.125Z,23.96
2018-06-27T07:52:56.215Z,24.64
2018-06-27T07:55:26.470Z,23.19
2018-06-27T07:57:56.883Z,23.97
2018-06-27T08:00:27.217Z,24.30
2018-06-27T08:02:57.068Z,24.93
2018-06-27T08:05:26.995Z,24.72
2018-06-27T08:07:56.886Z,24.93
2018-06-27T08:10:26.822Z,24.63
2018-06-27T08:12:56.860Z,24.70
2018-06-27T08:15:26.978Z,24.22
2018-06-27T08:17:57.199Z,23.74
2018-06-27T08:20:27.588Z,23.78
2018-06-27T08:22:57.544Z,24.23
2018-06-27T08:28:25.094Z,23.81
2018-06-27T08:30:55.162Z,24.61
2018-06-27T08:33:24.997Z,24.44
2018-06-27T08:35:55.536Z,23.37
2018-06-27T08:38:25.738Z,23.93
2018-06-27T08:40:56.114Z,24.77
2018-06-27T08:43:26.597Z,25.46
2018-06-27T08:45:57.090Z,25.64
2018-06-27T08:48:27.232Z,25.59
2018-06-27T08:50:57.276Z,25.51
2018-06-27T08:53:27.467Z,25.42
2018-06-27T08:55:57.519Z,25.16
2018-06-27T08:58:27.511Z,24.77
2018-06-27T09:00:57.445Z,24.80
2018-06-27T09:03:27.319Z,25.14
2018-06-27T09:05:57.791Z,24.87
2018-06-27T09:08:28.220Z,24.44
2018-06-27T09:10:58.679Z,24.50
2018-06-27T09:13:28.954Z,24.67
2018-06-27T09:15:59.228Z,25.16
2018-06-27T09:18:29.601Z,25.61
2018-06-27T09:21:00.249Z,24.21
2018-06-27T09:23:30.312Z,24.71
2018-06-27T09:26:00.460Z,24.84
2018-06-27T09:28:30.364Z,25.04
2018-06-27T09:31:00.422Z,26.76
2018-06-27T09:33:30.662Z,26.15
2018-06-27T09:36:01.265Z,24.50
2018-06-27T09:38:31.310Z,24.86
2018-06-27T09:41:01.395Z,24.29
2018-06-27T09:43:31.395Z,25.10
2018-06-27T09:46:01.617Z,25.11
2018-06-27T09:48:32.110Z,24.74
2018-06-27T09:51:02.220Z,24.44
2018-06-27T09:53:32.172Z,24.88
2018-06-27T09:56:03.217Z,23.58
2018-06-27T09:58:33.268Z,24.42
2018-06-27T10:01:03.505Z,24.98
2018-06-27T10:03:34.818Z,24.13
2018-06-27T10:06:04.867Z,25.66
2018-06-27T10:08:35.029Z,25.57
2018-06-27T10:11:05.115Z,26.42
2018-06-27T10:13:35.066Z,26.71
2018-06-27T10:16:05.131Z,26.91
2018-06-27T10:18:35.237Z,26.83
2018-06-27T10:21:05.676Z,24.46
2018-06-27T10:23:35.996Z,25.33
2018-06-27T10:26:06.433Z,26.32
2018-06-27T10:28:38.034Z,26.82
2018-06-27T10:31:08.296Z,26.75
2018-06-27T10:33:38.468Z,26.70
2018-06-27T10:36:08.640Z,27.39
2018-06-27T10:38:38.608Z,27.29
2018-06-27T10:41:08.877Z,26.52
2018-06-27T10:43:39.448Z,24.99
2018-06-27T10:46:09.489Z,25.43
2018-06-27T10:48:40.036Z,24.77
2018-06-27T10:51:10.081Z,23.73
2018-06-27T10:53:40.022Z,23.40
2018-06-27T10:56:10.008Z,25.03
2018-06-27T10:58:39.945Z,24.73
2018-06-27T11:01:10.190Z,24.71
2018-06-27T11:03:41.101Z,24.64
2018-06-27T11:06:11.301Z,25.26
2018-06-27T11:08:41.465Z,25.68
2018-06-27T11:11:11.402Z,25.24
2018-06-27T11:13:41.513Z,25.34
2018-06-27T11:16:11.428Z,24.98
2018-06-27T11:18:41.308Z,24.97
2018-06-27T11:21:11.517Z,25.13
2018-06-27T11:23:41.893Z,24.69
2018-06-27T11:26:12.170Z,25.19
2018-06-27T11:28:42.444Z,24.91
2018-06-27T11:31:12.708Z,24.66
2018-06-27T11:33:43.317Z,24.96
2018-06-27T11:36:14.822Z,25.09
2018-06-27T11:38:45.108Z,24.80
2018-06-27T11:41:15.092Z,25.57
2018-06-27T11:43:45.127Z,25.50
2018-06-27T11:46:15.253Z,24.93
2018-06-27T11:48:45.809Z,24.80
2018-06-27T11:51:15.797Z,25.57
2018-06-27T11:53:46.089Z,26.08
2018-06-27T11:56:16.041Z,25.96
2018-06-27T11:58:46.279Z,26.31
2018-06-27T12:01:16.249Z,26.19
2018-06-27T12:03:46.410Z,26.12
2018-06-27T12:06:16.972Z,25.64
2018-06-27T12:08:47.750Z,26.10
2018-06-27T12:11:18.261Z,26.21
2018-06-27T12:13:49.300Z,26.49
2018-06-27T12:16:19.843Z,26.53
2018-06-27T12:18:50.007Z,26.19
2018-06-27T12:21:20.124Z,26.63
2018-06-27T12:24:12.912Z,26.23
2018-06-27T12:26:42.852Z,26.55
2018-06-27T12:29:13.175Z,26.26
2018-06-27T12:31:43.378Z,26.60
2018-06-27T12:34:13.380Z,26.09
2018-06-27T12:36:43.308Z,26.20
2018-06-27T12:39:13.620Z,26.16
2018-06-27T12:41:43.523Z,25.77
2018-06-27T12:44:13.421Z,25.67
2018-06-27T12:46:43.336Z,25.81
2018-06-27T12:49:13.438Z,26.16
2018-06-27T12:51:43.384Z,25.66
2018-06-27T12:54:13.361Z,26.05
2018-06-27T12:56:43.372Z,25.76
2018-06-27T12:59:13.317Z,25.99
2018-06-27T13:01:43.257Z,26.28
2018-06-27T13:04:13.696Z,26.22
2018-06-27T13:06:44.032Z,25.46
2018-06-27T13:09:14.398Z,26.04
2018-06-27T13:11:44.340Z,26.07
2018-06-27T13:14:14.790Z,25.85
2018-06-27T13:16:44.764Z,25.78
2018-06-27T13:19:14.718Z,24.79
2018-06-27T13:21:44.750Z,24.54
2018-06-27T13:24:14.960Z,24.53
2018-06-27T13:26:45.209Z,24.44
2018-06-27T13:29:15.187Z,24.40
2018-06-27T13:31:45.261Z,24.28
2018-06-27T13:34:15.156Z,24.48
2018-06-27T13:36:45.149Z,24.35
2018-06-27T13:39:15.182Z,24.17
2018-06-27T13:41:45.396Z,23.49
2018-06-27T13:44:15.877Z,23.50
2018-06-27T13:46:46.008Z,23.71
2018-06-27T13:49:15.963Z,23.89
2018-06-27T13:51:46.088Z,23.46
2018-06-27T13:54:16.482Z,23.87
2018-06-27T13:56:47.392Z,23.72
2018-06-27T13:59:17.510Z,23.93
2018-06-27T14:01:47.702Z,25.14
2018-06-27T14:04:17.588Z,27.36
2018-06-27T14:06:47.852Z,29.07
2018-06-27T14:09:18.144Z,30.64
2018-06-27T14:11:48.752Z,29.81
2018-06-27T14:14:18.822Z,29.89
2018-06-27T14:16:48.728Z,29.89
2018-06-27T14:19:18.933Z,29.31
2018-06-27T14:21:49.024Z,30.55
2018-06-27T14:24:19.452Z,30.12
2018-06-27T14:26:49.524Z,29.21
2018-06-27T14:29:20.247Z,30.73
2018-06-27T14:31:50.654Z,31.66
2018-06-27T14:34:21.261Z,31.35
2018-06-27T14:36:51.440Z,30.98
2018-06-27T14:39:22.291Z,31.63
2018-06-27T14:41:52.307Z,31.87
2018-06-27T14:44:23.474Z,32.47
2018-06-27T14:46:53.545Z,32.04
2018-06-27T14:49:23.847Z,32.53
2018-06-27T14:51:53.772Z,33.81
2018-06-27T14:54:24.160Z,34.40
2018-06-27T14:56:54.183Z,34.77
2018-06-27T14:59:24.428Z,35.35
2018-06-27T15:01:54.818Z,34.34
2018-06-27T15:04:25.596Z,32.70
2018-06-27T15:06:56.130Z,34.24
2018-06-27T15:09:26.462Z,33.33
2018-06-27T15:11:56.933Z,33.90
2018-06-27T15:14:27.021Z,33.92
2018-06-27T15:16:57.345Z,32.84
2018-06-27T15:19:28.337Z,33.09
2018-06-27T15:21:59.374Z,33.20
2018-06-27T15:24:29.976Z,32.34
2018-06-27T15:26:59.957Z,32.22
2018-06-27T15:29:29.977Z,32.08
2018-06-27T15:31:59.973Z,32.63
2018-06-27T15:34:30.375Z,33.24
2018-06-27T15:37:00.514Z,33.50
2018-06-27T15:39:30.608Z,33.34
2018-06-27T15:42:00.629Z,32.09
2018-06-27T15:44:30.614Z,31.62
2018-06-27T15:47:00.936Z,31.88
2018-06-27T15:49:30.955Z,32.26
2018-06-27T15:52:02.072Z,31.62
2018-06-27T15:54:32.073Z,32.62
2018-06-27T15:57:02.419Z,30.27
2018-06-27T15:59:32.553Z,31.87
2018-06-27T16:02:02.322Z,31.44
2018-06-27T16:04:32.840Z,32.58
2018-06-27T16:07:03.293Z,32.73
2018-06-27T16:09:33.661Z,33.24
2018-06-27T16:12:03.644Z,33.47
2018-06-27T16:14:34.284Z,32.10
2018-06-27T16:17:04.304Z,31.71
2018-06-27T16:19:34.275Z,30.71
2018-06-27T16:22:04.184Z,30.76
2018-06-27T16:24:34.388Z,29.04
2018-06-27T16:27:04.585Z,27.05
2018-06-27T16:29:34.894Z,26.94
2018-06-27T16:32:05.028Z,27.57
2018-06-27T16:34:34.952Z,28.88
2018-06-27T16:37:05.601Z,28.57
2018-06-27T16:39:35.680Z,29.72
2018-06-27T16:42:05.653Z,29.83
2018-06-27T16:44:35.689Z,29.20
2018-06-27T16:47:05.753Z,29.01
2018-06-27T16:49:35.756Z,28.44
2018-06-27T16:52:06.876Z,27.84
2018-06-27T16:54:36.871Z,27.01
2018-06-27T16:57:07.161Z,25.99
2018-06-27T16:59:37.129Z,25.24
2018-06-27T17:02:07.727Z,25.67
2018-06-27T17:04:38.221Z,24.87
2018-06-27T17:07:09.732Z,24.58
2018-06-27T17:09:39.760Z,24.41
2018-06-27T17:12:09.893Z,23.79
2018-06-27T17:14:39.948Z,23.54
2018-06-27T17:17:09.860Z,23.66
2018-06-27T17:19:40.127Z,23.65
2018-06-27T17:22:10.123Z,24.07
2018-06-27T17:24:40.721Z,24.41
2018-06-27T17:27:10.825Z,24.25
2018-06-27T17:29:40.922Z,23.91
2018-06-27T17:32:11.434Z,23.52
2018-06-27T17:34:41.506Z,23.76
2018-06-27T17:37:11.802Z,23.47
2018-06-27T17:39:42.476Z,23.27
2018-06-27T17:42:12.958Z,23.17
2018-06-27T17:44:43.034Z,22.87
2018-06-27T17:47:13.396Z,22.76
2018-06-27T17:49:43.830Z,22.70
2018-06-27T17:52:13.840Z,22.91
2018-06-27T17:54:43.972Z,23.00
2018-06-27T17:57:14.089Z,23.20
2018-06-27T17:59:43.977Z,23.11
2018-06-27T18:02:14.575Z,23.20
2018-06-27T18:04:44.592Z,23.03
2018-06-27T18:07:14.685Z,23.26
2018-06-27T18:09:45.082Z,23.02
2018-06-27T18:12:15.433Z,22.71
2018-06-27T18:14:45.681Z,22.59
2018-06-27T18:17:15.692Z,22.69
2018-06-27T18:19:46.387Z,23.24
2018-06-27T18:22:16.296Z,22.97
2018-06-27T18:24:46.412Z,22.89
2018-06-27T18:27:16.611Z,22.84
2018-06-27T18:29:47.040Z,23.25
2018-06-27T18:32:17.008Z,23.02
2018-06-27T18:34:47.196Z,23.00
2018-06-27T18:37:17.643Z,23.01
2018-06-27T18:39:47.782Z,22.94
2018-06-27T18:42:17.771Z,23.21
2018-06-27T18:44:48.302Z,22.88
2018-06-27T18:47:18.690Z,23.02
2018-06-27T18:49:48.730Z,23.51
2018-06-27T18:52:19.953Z,23.64
2018-06-27T18:54:50.454Z,23.76
2018-06-27T18:57:20.654Z,23.55
2018-06-27T18:59:50.902Z,23.10
2018-06-27T19:02:21.300Z,23.08
2018-06-27T19:04:51.476Z,22.87
2018-06-27T19:07:22.014Z,23.10
2018-06-27T19:09:51.983Z,23.58
2018-06-27T19:12:22.076Z,23.54
2018-06-27T19:14:52.712Z,23.55
2018-06-27T19:17:22.999Z,23.28
2018-06-27T19:19:53.110Z,23.30
2018-06-27T19:22:23.715Z,23.12
2018-06-27T19:24:54.145Z,23.19
2018-06-27T19:27:24.083Z,23.20
2018-06-27T19:29:54.184Z,22.98
2018-06-27T19:32:24.577Z,22.74
2018-06-27T19:34:54.762Z,22.72
2018-06-27T19:37:25.146Z,22.95
2018-06-27T19:39:55.382Z,23.07
2018-06-27T19:42:25.517Z,22.67
2018-06-27T19:44:55.546Z,22.55
2018-06-27T19:47:25.524Z,22.58
2018-06-27T19:49:55.679Z,22.79
2018-06-27T19:52:25.710Z,22.78
2018-06-27T19:54:55.658Z,22.64
2018-06-27T19:57:26.284Z,22.71
2018-06-27T19:59:58.261Z,22.28
2018-06-27T20:02:28.423Z,22.18
2018-06-27T20:04:58.512Z,21.91
2018-06-27T20:07:29.473Z,22.51
2018-06-27T20:09:59.624Z,21.97
2018-06-27T20:12:30.206Z,21.50
2018-06-27T20:15:00.286Z,21.56
2018-06-27T20:17:30.624Z,21.51
2018-06-27T20:20:00.692Z,21.36
2018-06-27T20:22:30.816Z,21.09
2018-06-27T20:25:01.052Z,20.79
2018-06-27T20:27:31.254Z,20.96
2018-06-27T20:30:01.438Z,21.02
2018-06-27T20:32:31.658Z,20.86
2018-06-27T20:35:01.865Z,20.62
2018-06-27T20:37:32.728Z,20.52
2018-06-27T20:40:03.046Z,20.44
2018-06-27T20:42:33.308Z,20.56
2018-06-27T20:45:03.348Z,21.32
2018-06-27T20:47:33.564Z,21.30
2018-06-27T20:50:03.708Z,20.81
2018-06-27T20:52:33.870Z,20.67
2018-06-27T20:55:04.180Z,20.39
2018-06-27T20:57:34.658Z,20.34
2018-06-27T21:00:04.664Z,20.03
2018-06-27T21:02:34.716Z,19.91
2018-06-27T21:05:05.019Z,19.88
2018-06-27T21:07:35.088Z,19.85
2018-06-27T21:10:05.471Z,19.74
2018-06-27T21:12:35.487Z,19.89
2018-06-27T21:15:05.474Z,19.64
2018-06-27T21:17:35.533Z,19.39
2018-06-27T21:20:05.830Z,19.62
2018-06-27T21:22:36.262Z,19.83
2018-06-27T21:25:06.239Z,19.54
2018-06-27T21:27:36.472Z,19.71
2018-06-27T21:30:07.547Z,19.58
2018-06-27T21:32:37.483Z,19.58
2018-06-27T21:35:07.516Z,19.55
2018-06-27T21:37:37.790Z,19.39
2018-06-27T21:40:08.242Z,19.39
2018-06-27T21:42:38.206Z,19.71
2018-06-27T21:45:08.661Z,19.73
2018-06-27T21:47:40.249Z,19.55
2018-06-27T21:50:11.756Z,19.33
2018-06-27T21:52:41.759Z,19.48
2018-06-27T21:55:11.819Z,19.53
2018-06-27T21:57:42.064Z,19.53
2018-06-27T22:00:12.630Z,19.75
2018-06-27T22:02:43.417Z,19.69
2018-06-27T22:05:13.340Z,19.55
2018-06-27T22:07:43.761Z,19.92
2018-06-27T22:10:13.877Z,19.83
2018-06-27T22:12:44.050Z,19.69
2018-06-27T22:15:14.340Z,19.31
2018-06-27T22:17:44.759Z,19.17
2018-06-27T22:20:15.007Z,19.02
2018-06-27T22:22:45.189Z,18.91
2018-06-27T22:25:15.280Z,19.03
2018-06-27T22:27:45.444Z,19.04
2018-06-27T22:30:15.716Z,19.05
2018-06-27T22:32:46.077Z,19.18
2018-06-27T22:35:16.462Z,19.33
2018-06-27T22:37:46.705Z,19.24
2018-06-27T22:40:16.815Z,19.37
2018-06-27T22:42:47.555Z,19.40
2018-06-27T22:45:17.848Z,19.27
2018-06-27T22:47:47.901Z,19.24
2018-06-27T22:50:18.275Z,19.06
2018-06-27T22:52:48.319Z,19.08
2018-06-27T22:55:18.704Z,19.20
2018-06-27T22:57:49.056Z,19.06
2018-06-27T23:00:22.100Z,19.07
2018-06-27T23:02:51.977Z,18.99
2018-06-27T23:05:22.582Z,18.95
2018-06-27T23:07:52.778Z,19.10
2018-06-27T23:10:22.886Z,18.77
2018-06-27T23:12:52.884Z,18.93
2018-06-27T23:15:22.936Z,19.26
2018-06-27T23:17:52.951Z,19.38
2018-06-27T23:20:23.262Z,19.28
2018-06-27T23:22:53.418Z,19.29
2018-06-27T23:25:23.490Z,19.33
2018-06-27T23:27:53.517Z,19.11
2018-06-27T23:30:23.685Z,19.16
2018-06-27T23:32:53.790Z,19.20
2018-06-27T23:35:23.853Z,19.33
2018-06-27T23:37:54.401Z,19.10
2018-06-27T23:40:24.440Z,19.06
2018-06-27T23:42:54.582Z,19.35
2018-06-27T23:45:24.820Z,19.34
2018-06-27T23:47:54.934Z,19.31
2018-06-27T23:50:24.997Z,19.35
2018-06-27T23:52:55.033Z,19.23
2018-06-27T23:55:25.211Z,19.26
2018-06-27T23:57:55.300Z,19.05
